Time;durP1;ratioP1;P1;durP2;ratioP2;P2;SDS_P1;SDS_P2;PMS_P1;PMS_P2;Temp;Humidity;BMP_temperature;BMP_pressure;BME280_temperature;BME280_humidity;BME280_pressure;Samples;Min_cycle;Max_cycle;Signal;HPM_P1;HPM_P2
2021/06/13 00:00:29;;;;;;;10.25;6.22;;;;;;;;;;2069047;28;20249;-57
2021/06/13 00:01:30;;;;;;;14.10;7.05;;;;;;;;;;2067182;28;20170;-57
2021/06/13 00:02:30;;;;;;;10.68;6.88;;;;;;;;;;2067911;28;20185;-58
2021/06/13 00:03:30;;;;;;;11.30;6.78;;;;;;;;;;2075326;28;20580;-60
2021/06/13 00:04:31;;;;;;;13.38;6.93;;;;;;;;;;2075817;28;20272;-56
2021/06/13 00:05:32;;;;;;;10.45;6.95;;;;;;;;;;2068123;28;20192;-58
2021/06/13 00:06:32;;;;;;;13.65;7.28;;;;;;;;;;2069606;28;20165;-58
2021/06/13 00:07:38;;;;;;;9.30;6.45;;;;;;;;;;2068658;28;20201;-57
2021/06/13 00:08:38;;;;;;;12.10;6.55;;;;;;;;;;2068423;28;20186;-59
2021/06/13 00:09:38;;;;;;;12.73;7.40;;;;;;;;;;2067910;28;20268;-56
2021/06/13 00:10:38;;;;;;;13.57;8.18;;;;;;;;;;2059095;28;20682;-59
2021/06/13 00:11:39;;;;;;;10.20;7.10;;;;;;;;;;2066220;28;20184;-59
2021/06/13 00:12:39;;;;;;;10.73;7.13;;;;;;;;;;2066440;28;20236;-54
2021/06/13 00:13:40;;;;;;;12.98;7.45;;;;;;;;;;2066964;28;20188;-55
2021/06/13 00:14:43;;;;;;;13.57;7.10;;;;;;;;;;2075444;28;20165;-60
2021/06/13 00:15:43;;;;;;;14.57;6.97;;;;;;;;;;2072440;28;20247;-56
2021/06/13 00:16:44;;;;;;;12.05;7.85;;;;;;;;;;2058967;28;20189;-56
2021/06/13 00:17:44;;;;;;;15.18;7.70;;;;;;;;;;2058411;28;20178;-57
2021/06/13 00:18:45;;;;;;;10.60;7.25;;;;;;;;;;2057984;28;20173;-54
2021/06/13 00:19:45;;;;;;;12.65;7.05;;;;;;;;;;2057236;28;20186;-55
2021/06/13 00:20:46;;;;;;;11.52;7.28;;;;;;;;;;2057106;28;20198;-57
2021/06/13 00:21:46;;;;;;;11.80;7.03;;;;;;;;;;2063980;28;20188;-54
2021/06/13 00:22:47;;;;;;;11.05;6.70;;;;;;;;;;2066452;28;20677;-60
2021/06/13 00:23:47;;;;;;;12.20;7.13;;;;;;;;;;2068097;28;20178;-59
2021/06/13 00:24:48;;;;;;;10.55;6.78;;;;;;;;;;2068684;28;20185;-57
2021/06/13 00:25:48;;;;;;;12.68;6.95;;;;;;;;;;2069302;28;20174;-56
2021/06/13 00:26:49;;;;;;;10.93;6.85;;;;;;;;;;2070376;28;20257;-59
2021/06/13 00:27:49;;;;;;;9.13;6.82;;;;;;;;;;2070256;28;20162;-58
2021/06/13 00:28:49;;;;;;;11.15;7.25;;;;;;;;;;2069296;28;20181;-55
2021/06/13 00:29:51;;;;;;;12.57;7.00;;;;;;;;;;2066300;28;20261;-58
2021/06/13 00:30:51;;;;;;;12.88;7.00;;;;;;;;;;2067873;28;20657;-59
2021/06/13 00:31:51;;;;;;;12.32;7.18;;;;;;;;;;2065210;28;20658;-57
2021/06/13 00:32:51;;;;;;;12.10;7.15;;;;;;;;;;2058957;28;20600;-57
2021/06/13 00:33:52;;;;;;;11.93;7.00;;;;;;;;;;2058915;28;20178;-58
2021/06/13 00:34:52;;;;;;;12.43;6.85;;;;;;;;;;2059634;28;20185;-57
2021/06/13 00:35:53;;;;;;;10.15;7.15;;;;;;;;;;2058740;28;20170;-55
2021/06/13 00:36:53;;;;;;;12.00;6.78;;;;;;;;;;2058035;28;20186;-58
2021/06/13 00:37:53;;;;;;;15.10;6.90;;;;;;;;;;2057565;28;20174;-55
2021/06/13 00:38:54;;;;;;;9.43;6.90;;;;;;;;;;2057496;28;20218;-56
2021/06/13 00:39:55;;;;;;;10.43;7.20;;;;;;;;;;2057438;28;20238;-56
2021/06/13 00:40:55;;;;;;;11.95;6.82;;;;;;;;;;2056662;28;20202;-52
2021/06/13 00:41:56;;;;;;;12.65;7.35;;;;;;;;;;2057177;28;20182;-52
2021/06/13 00:42:57;;;;;;;10.48;7.00;;;;;;;;;;2064719;28;20182;-52
2021/06/13 00:43:57;;;;;;;10.48;6.50;;;;;;;;;;2065024;28;20176;-53
2021/06/13 00:44:57;;;;;;;11.13;7.20;;;;;;;;;;2065440;28;20220;-53
2021/06/13 00:45:58;;;;;;;11.15;6.93;;;;;;;;;;2064994;28;20180;-55
2021/06/13 00:46:58;;;;;;;13.77;6.90;;;;;;;;;;2056847;28;20185;-55
2021/06/13 00:47:59;;;;;;;10.10;7.00;;;;;;;;;;2056754;28;20232;-52
2021/06/13 00:48:59;;;;;;;15.60;7.53;;;;;;;;;;2064718;28;20201;-54
2021/06/13 00:50:00;;;;;;;10.13;7.18;;;;;;;;;;2065472;28;20166;-51
2021/06/13 00:51:01;;;;;;;13.32;8.00;;;;;;;;;;2065239;28;20630;-53
2021/06/13 00:52:01;;;;;;;9.48;7.65;;;;;;;;;;2063578;28;20615;-55
2021/06/13 00:53:04;;;;;;;10.63;7.63;;;;;;;;;;2056649;28;20194;-53
2021/06/13 00:54:05;;;;;;;11.60;7.13;;;;;;;;;;2056567;28;20184;-52
2021/06/13 00:55:08;;;;;;;16.08;8.07;;;;;;;;;;2056392;28;20170;-55
2021/06/13 00:56:08;;;;;;;17.58;8.00;;;;;;;;;;2056324;28;20237;-59
2021/06/13 00:57:08;;;;;;;8.68;7.13;;;;;;;;;;2056969;28;20557;-56
2021/06/13 00:58:09;;;;;;;10.05;7.30;;;;;;;;;;2056418;28;20181;-55
2021/06/13 00:59:10;;;;;;;12.88;6.78;;;;;;;;;;2056471;28;20182;-55
2021/06/13 01:00:11;;;;;;;14.27;6.78;;;;;;;;;;2048488;28;20584;-54
2021/06/13 01:01:11;;;;;;;9.25;7.63;;;;;;;;;;2050517;28;20691;-54
2021/06/13 01:02:13;;;;;;;13.90;7.95;;;;;;;;;;2056451;28;20556;-56
2021/06/13 01:03:14;;;;;;;11.68;7.53;;;;;;;;;;2056585;28;20254;-52
2021/06/13 01:04:14;;;;;;;13.75;7.63;;;;;;;;;;2056501;28;20197;-53
2021/06/13 01:05:16;;;;;;;18.35;8.05;;;;;;;;;;2057346;28;20214;-53
2021/06/13 01:06:20;;;;;;;11.32;7.72;;;;;;;;;;2056658;28;20166;-54
2021/06/13 01:07:35;;;;;;;13.15;7.50;;;;;;;;;;2056387;28;20681;-56
2021/06/13 01:08:38;;;;;;;13.18;8.25;;;;;;;;;;2042326;29;20632;-56
2021/06/13 01:09:41;;;;;;;12.23;7.72;;;;;;;;;;2041141;28;20176;-51
2021/06/13 01:11:00;;;;;;;10.77;7.40;;;;;;;;;;2049932;28;20186;-54
2021/06/13 01:12:07;;;;;;;14.95;7.53;;;;;;;;;;2050308;28;20210;-52
2021/06/13 01:13:13;;;;;;;16.20;8.18;;;;;;;;;;2056627;28;20186;-54
2021/06/13 01:14:36;;;;;;;10.82;7.55;;;;;;;;;;2056321;28;20178;-53
2021/06/13 01:15:40;;;;;;;14.00;9.40;;;;;;;;;;2051210;28;20581;-54
2021/06/13 01:17:00;;;;;;;13.82;8.00;;;;;;;;;;2056596;28;20174;-51
2021/06/13 01:18:06;;;;;;;12.60;8.18;;;;;;;;;;2056964;28;20261;-52
2021/06/13 01:19:10;;;;;;;14.10;9.13;;;;;;;;;;2059553;28;20174;-55
2021/06/13 01:20:16;;;;;;;12.43;7.32;;;;;;;;;;2064404;28;20720;-56
2021/06/13 01:21:23;;;;;;;12.20;7.22;;;;;;;;;;2064340;28;20201;-57
2021/06/13 01:22:26;;;;;;;12.63;8.10;;;;;;;;;;2062647;28;20220;-57
2021/06/13 01:23:38;;;;;;;15.13;8.18;;;;;;;;;;2055291;28;20170;-56
2021/06/13 01:24:42;;;;;;;16.98;8.55;;;;;;;;;;2065587;28;20226;-53
2021/06/13 01:25:57;;;;;;;11.93;8.02;;;;;;;;;;2063545;28;20181;-57
2021/06/13 01:27:03;;;;;;;14.40;8.15;;;;;;;;;;2059924;28;20169;-53
2021/06/13 01:28:04;;;;;;;10.30;7.25;;;;;;;;;;2062376;28;20179;-54
2021/06/13 01:29:08;;;;;;;13.45;8.05;;;;;;;;;;2063408;28;20188;-57
2021/06/13 01:30:10;;;;;;;11.05;8.23;;;;;;;;;;2056359;28;20166;-58
2021/06/13 01:31:11;;;;;;;15.85;8.77;;;;;;;;;;2063486;28;20241;-60
2021/06/13 01:32:17;;;;;;;18.55;8.60;;;;;;;;;;2060454;28;20198;-55
2021/06/13 01:33:18;;;;;;;16.23;9.63;;;;;;;;;;2060834;28;20212;-57
2021/06/13 01:34:23;;;;;;;11.27;8.77;;;;;;;;;;2048673;28;20265;-56
2021/06/13 01:35:25;;;;;;;13.52;7.90;;;;;;;;;;2062984;28;20237;-56
2021/06/13 01:36:27;;;;;;;13.95;8.32;;;;;;;;;;2069007;28;20173;-59
2021/06/13 01:37:30;;;;;;;14.68;8.38;;;;;;;;;;2055667;28;20681;-55
2021/06/13 01:38:32;;;;;;;16.23;8.50;;;;;;;;;;2071420;28;20173;-55
2021/06/13 01:39:33;;;;;;;13.60;8.23;;;;;;;;;;2068363;28;20173;-55
2021/06/13 01:40:40;;;;;;;13.60;8.27;;;;;;;;;;2071433;28;20181;-56
2021/06/13 01:41:40;;;;;;;14.63;8.05;;;;;;;;;;2049741;28;20675;-58
2021/06/13 01:42:43;;;;;;;15.35;8.55;;;;;;;;;;2073126;28;20200;-56
2021/06/13 01:43:44;;;;;;;13.60;7.88;;;;;;;;;;2082436;28;20176;-60
2021/06/13 01:44:46;;;;;;;12.07;7.68;;;;;;;;;;2066848;28;20170;-55
2021/06/13 01:45:50;;;;;;;11.25;7.72;;;;;;;;;;2074218;28;20200;-55
2021/06/13 01:46:51;;;;;;;15.57;8.82;;;;;;;;;;2068829;28;20181;-55
2021/06/13 01:47:52;;;;;;;13.57;7.90;;;;;;;;;;2074285;28;20547;-55
2021/06/13 01:48:54;;;;;;;12.00;7.85;;;;;;;;;;2072398;28;20571;-55
2021/06/13 01:49:55;;;;;;;18.05;8.60;;;;;;;;;;2072361;28;20633;-54
2021/06/13 01:50:59;;;;;;;14.65;8.57;;;;;;;;;;2067610;28;20201;-55
2021/06/13 01:52:00;;;;;;;14.20;8.18;;;;;;;;;;2072569;28;20202;-56
2021/06/13 01:53:05;;;;;;;14.75;8.13;;;;;;;;;;2066568;28;20265;-55
2021/06/13 01:54:06;;;;;;;13.85;8.55;;;;;;;;;;2071695;28;20254;-54
2021/06/13 01:55:09;;;;;;;17.65;8.48;;;;;;;;;;2074372;28;20192;-58
2021/06/13 01:56:15;;;;;;;14.18;8.18;;;;;;;;;;2066652;28;20204;-55
2021/06/13 01:57:16;;;;;;;16.85;8.55;;;;;;;;;;2057920;28;20193;-59
2021/06/13 01:58:32;;;;;;;10.77;7.88;;;;;;;;;;2074333;28;20492;-57
2021/06/13 01:59:41;;;;;;;17.60;8.07;;;;;;;;;;2072027;28;20273;-56
2021/06/13 02:00:42;;;;;;;12.60;8.45;;;;;;;;;;2049800;28;20179;-55
2021/06/13 02:01:50;;;;;;;15.75;8.55;;;;;;;;;;2058647;28;20201;-58
2021/06/13 02:02:53;;;;;;;12.75;8.32;;;;;;;;;;2062118;28;20659;-56
2021/06/13 02:04:03;;;;;;;15.32;9.38;;;;;;;;;;2064904;28;20208;-55
2021/06/13 02:05:23;;;;;;;14.25;8.52;;;;;;;;;;2069627;28;20153;-55
2021/06/13 02:06:28;;;;;;;16.75;8.32;;;;;;;;;;2072023;28;20172;-55
2021/06/13 02:07:34;;;;;;;14.00;9.52;;;;;;;;;;2059826;28;20162;-55
2021/06/13 02:08:34;;;;;;;14.15;8.95;;;;;;;;;;2063070;28;20207;-55
2021/06/13 02:09:43;;;;;;;16.75;8.80;;;;;;;;;;2066565;28;20264;-55
2021/06/13 02:10:44;;;;;;;15.10;8.50;;;;;;;;;;2058533;28;20648;-57
2021/06/13 02:11:46;;;;;;;13.77;7.70;;;;;;;;;;2058059;28;20221;-55
2021/06/13 02:12:49;;;;;;;12.35;8.15;;;;;;;;;;2082085;28;20274;-53
2021/06/13 02:13:50;;;;;;;14.27;9.25;;;;;;;;;;2067039;28;20237;-57
2021/06/13 02:14:58;;;;;;;13.10;8.55;;;;;;;;;;2066259;28;20196;-55
2021/06/13 02:16:06;;;;;;;12.85;8.60;;;;;;;;;;2058150;28;20170;-57
2021/06/13 02:17:08;;;;;;;14.65;8.85;;;;;;;;;;2056024;28;20186;-54
2021/06/13 02:18:18;;;;;;;18.67;8.38;;;;;;;;;;2061422;28;20638;-53
2021/06/13 02:19:21;;;;;;;14.73;9.02;;;;;;;;;;2059264;28;20204;-54
2021/06/13 02:20:28;;;;;;;15.20;8.45;;;;;;;;;;2064373;28;20173;-56
2021/06/13 02:21:29;;;;;;;11.05;9.15;;;;;;;;;;2073601;28;20229;-52
2021/06/13 02:22:30;;;;;;;16.60;9.43;;;;;;;;;;2074071;28;20276;-53
2021/06/13 02:23:31;;;;;;;16.10;8.45;;;;;;;;;;2061987;28;20166;-54
2021/06/13 02:24:36;;;;;;;12.18;8.85;;;;;;;;;;2058379;28;20232;-55
2021/06/13 02:25:36;;;;;;;16.90;9.63;;;;;;;;;;2079772;28;20172;-57
2021/06/13 02:26:39;;;;;;;13.77;9.02;;;;;;;;;;2074721;28;20165;-55
2021/06/13 02:27:39;;;;;;;15.55;8.60;;;;;;;;;;2065375;28;20174;-54
2021/06/13 02:28:41;;;;;;;15.60;9.55;;;;;;;;;;2058623;28;20229;-58
2021/06/13 02:29:44;;;;;;;16.42;8.70;;;;;;;;;;2073796;28;20248;-55
2021/06/13 02:30:47;;;;;;;18.13;9.02;;;;;;;;;;2057508;28;20643;-56
2021/06/13 02:31:48;;;;;;;13.43;8.57;;;;;;;;;;2057958;28;20754;-53
2021/06/13 02:32:49;;;;;;;16.27;8.68;;;;;;;;;;2072934;28;20185;-58
2021/06/13 02:33:53;;;;;;;17.52;8.93;;;;;;;;;;2072726;28;20574;-55
2021/06/13 02:34:54;;;;;;;14.77;8.73;;;;;;;;;;2067283;28;20248;-54
2021/06/13 02:36:03;;;;;;;11.07;8.35;;;;;;;;;;2073629;28;20175;-54
2021/06/13 02:37:06;;;;;;;13.85;9.35;;;;;;;;;;2070571;28;20172;-52
2021/06/13 02:38:07;;;;;;;17.00;9.10;;;;;;;;;;2067937;28;20177;-56
2021/06/13 02:39:08;;;;;;;15.75;8.90;;;;;;;;;;2070921;28;20622;-54
2021/06/13 02:40:09;;;;;;;14.00;8.93;;;;;;;;;;2068719;28;20165;-53
2021/06/13 02:41:10;;;;;;;14.43;9.40;;;;;;;;;;2073003;28;20211;-55
2021/06/13 02:42:10;;;;;;;18.23;8.95;;;;;;;;;;2074172;28;20208;-55
2021/06/13 02:43:17;;;;;;;15.05;9.35;;;;;;;;;;2073439;28;20212;-55
2021/06/13 02:44:20;;;;;;;16.38;9.30;;;;;;;;;;2072026;28;20204;-54
2021/06/13 02:45:23;;;;;;;15.52;8.65;;;;;;;;;;2068668;28;20228;-54
2021/06/13 02:46:28;;;;;;;17.48;9.20;;;;;;;;;;2071426;28;20260;-55
2021/06/13 02:47:28;;;;;;;12.00;8.88;;;;;;;;;;2067696;28;20240;-53
2021/06/13 02:48:28;;;;;;;12.77;8.73;;;;;;;;;;2066172;28;20178;-51
2021/06/13 02:49:29;;;;;;;14.05;9.57;;;;;;;;;;2065484;28;20177;-55
2021/06/13 02:50:30;;;;;;;15.63;9.55;;;;;;;;;;2063319;28;20261;-58
2021/06/13 02:51:35;;;;;;;13.57;8.98;;;;;;;;;;2058654;28;20257;-55
2021/06/13 02:52:47;;;;;;;15.75;8.77;;;;;;;;;;2072867;28;20173;-56
2021/06/13 02:53:50;;;;;;;12.93;8.88;;;;;;;;;;2073682;28;20173;-57
2021/06/13 02:54:59;;;;;;;18.35;9.32;;;;;;;;;;2073889;28;20204;-53
2021/06/13 02:56:05;;;;;;;18.25;9.98;;;;;;;;;;2063958;28;20169;-53
2021/06/13 02:57:07;;;;;;;15.93;9.20;;;;;;;;;;2068283;28;20177;-51
2021/06/13 02:58:32;;;;;;;21.38;9.75;;;;;;;;;;2071407;28;20252;-56
2021/06/13 02:59:36;;;;;;;18.95;9.23;;;;;;;;;;2058089;28;20186;-54
2021/06/13 03:00:37;;;;;;;17.13;9.63;;;;;;;;;;2056351;28;20884;-51
2021/06/13 03:01:42;;;;;;;14.88;9.75;;;;;;;;;;2056701;28;20179;-51
2021/06/13 03:02:46;;;;;;;16.48;9.57;;;;;;;;;;2057124;28;20170;-54
2021/06/13 03:03:48;;;;;;;13.45;9.10;;;;;;;;;;2064950;28;20170;-55
2021/06/13 03:04:48;;;;;;;15.55;9.23;;;;;;;;;;2072728;28;20185;-55
2021/06/13 03:05:49;;;;;;;12.35;9.20;;;;;;;;;;2065410;28;20184;-56
2021/06/13 03:06:55;;;;;;;15.07;9.60;;;;;;;;;;2072460;28;20227;-57
2021/06/13 03:07:56;;;;;;;15.07;9.73;;;;;;;;;;2067014;28;20179;-56
2021/06/13 03:08:57;;;;;;;16.02;9.75;;;;;;;;;;2073212;28;20177;-54
2021/06/13 03:10:01;;;;;;;16.20;9.82;;;;;;;;;;2068516;28;20182;-54
2021/06/13 03:11:02;;;;;;;15.73;9.65;;;;;;;;;;2073061;28;20255;-60
2021/06/13 03:12:03;;;;;;;20.05;9.55;;;;;;;;;;2068254;28;20241;-52
2021/06/13 03:13:03;;;;;;;20.65;10.20;;;;;;;;;;2073507;28;20231;-53
2021/06/13 03:14:06;;;;;;;14.65;10.13;;;;;;;;;;2069605;28;20705;-53
2021/06/13 03:15:06;;;;;;;16.80;9.27;;;;;;;;;;2065928;28;20640;-53
2021/06/13 03:16:08;;;;;;;13.30;9.95;;;;;;;;;;2065821;28;20237;-54
2021/06/13 03:17:10;;;;;;;15.15;9.45;;;;;;;;;;2068191;28;20173;-53
2021/06/13 03:18:12;;;;;;;17.17;9.80;;;;;;;;;;2070104;28;20188;-62
2021/06/13 03:19:13;;;;;;;16.08;9.43;;;;;;;;;;2068306;28;20176;-51
2021/06/13 03:20:14;;;;;;;15.85;9.93;;;;;;;;;;2069478;28;20188;-52
2021/06/13 03:21:17;;;;;;;15.98;10.32;;;;;;;;;;2069511;28;20204;-55
2021/06/13 03:22:17;;;;;;;16.42;10.02;;;;;;;;;;2070581;28;20227;-56
2021/06/13 03:23:20;;;;;;;15.25;9.18;;;;;;;;;;2065208;28;20543;-53
2021/06/13 03:24:21;;;;;;;15.07;10.18;;;;;;;;;;2065724;28;20194;-52
2021/06/13 03:25:23;;;;;;;16.48;10.30;;;;;;;;;;2078386;28;20164;-55
2021/06/13 03:26:24;;;;;;;17.05;9.60;;;;;;;;;;2068154;28;20182;-51
2021/06/13 03:27:24;;;;;;;15.70;9.90;;;;;;;;;;2070559;28;20168;-53
2021/06/13 03:28:25;;;;;;;13.82;9.43;;;;;;;;;;2073408;28;20628;-52
2021/06/13 03:29:27;;;;;;;15.02;9.60;;;;;;;;;;2073125;28;20707;-53
2021/06/13 03:30:27;;;;;;;16.15;9.85;;;;;;;;;;2073660;28;20184;-52
2021/06/13 03:31:35;;;;;;;17.48;10.15;;;;;;;;;;2067439;28;20166;-53
2021/06/13 03:32:35;;;;;;;19.65;11.20;;;;;;;;;;2073696;28;20200;-52
2021/06/13 03:33:37;;;;;;;23.98;10.25;;;;;;;;;;2064281;28;20166;-52
2021/06/13 03:34:39;;;;;;;13.45;9.23;;;;;;;;;;2055499;28;20180;-56
2021/06/13 03:35:41;;;;;;;14.45;10.15;;;;;;;;;;2064464;28;20619;-56
2021/06/13 03:36:42;;;;;;;16.83;9.82;;;;;;;;;;2057086;28;20178;-52
2021/06/13 03:37:42;;;;;;;17.77;10.55;;;;;;;;;;2057028;28;20178;-55
2021/06/13 03:38:45;;;;;;;13.77;9.90;;;;;;;;;;2057472;28;20174;-55
2021/06/13 03:39:48;;;;;;;15.68;9.63;;;;;;;;;;2065481;28;20716;-54
2021/06/13 03:40:48;;;;;;;15.02;9.60;;;;;;;;;;2076177;28;20200;-54
2021/06/13 03:41:50;;;;;;;17.15;10.18;;;;;;;;;;2065031;28;20591;-55
2021/06/13 03:42:50;;;;;;;13.85;9.45;;;;;;;;;;2065337;28;20174;-52
2021/06/13 03:43:52;;;;;;;18.10;9.35;;;;;;;;;;2065416;28;20174;-55
2021/06/13 03:44:53;;;;;;;14.23;10.02;;;;;;;;;;2065230;28;20184;-56
2021/06/13 03:45:53;;;;;;;13.68;9.85;;;;;;;;;;2065287;28;20177;-57
2021/06/13 03:46:54;;;;;;;13.02;8.98;;;;;;;;;;2065781;28;20189;-56
2021/06/13 03:47:54;;;;;;;14.50;9.57;;;;;;;;;;2065668;28;20172;-54
2021/06/13 03:48:56;;;;;;;18.23;10.35;;;;;;;;;;2065297;28;20205;-56
2021/06/13 03:49:57;;;;;;;18.88;10.05;;;;;;;;;;2058231;28;20257;-54
2021/06/13 03:50:58;;;;;;;21.65;10.13;;;;;;;;;;2071176;28;20240;-52
2021/06/13 03:51:58;;;;;;;16.65;10.55;;;;;;;;;;2070748;28;20204;-55
2021/06/13 03:53:01;;;;;;;16.15;9.77;;;;;;;;;;2065293;28;20260;-57
2021/06/13 03:54:02;;;;;;;13.43;9.43;;;;;;;;;;2065738;28;20259;-55
2021/06/13 03:55:02;;;;;;;15.07;9.77;;;;;;;;;;2073099;28;20181;-55
2021/06/13 03:56:04;;;;;;;19.98;10.20;;;;;;;;;;2073003;28;20197;-52
2021/06/13 03:57:06;;;;;;;16.60;10.07;;;;;;;;;;2065844;28;20552;-53
2021/06/13 03:58:09;;;;;;;18.02;10.48;;;;;;;;;;2065313;28;20181;-55
2021/06/13 03:59:10;;;;;;;15.73;9.98;;;;;;;;;;2064441;28;20560;-52
2021/06/13 04:00:12;;;;;;;14.98;10.15;;;;;;;;;;2070253;28;20268;-54
2021/06/13 04:01:17;;;;;;;19.30;10.27;;;;;;;;;;2061671;28;20201;-52
2021/06/13 04:02:18;;;;;;;15.38;9.40;;;;;;;;;;2066407;28;20201;-54
2021/06/13 04:03:20;;;;;;;14.10;9.88;;;;;;;;;;2066212;28;20165;-54
2021/06/13 04:04:21;;;;;;;15.65;9.57;;;;;;;;;;2066233;28;20193;-56
2021/06/13 04:05:21;;;;;;;14.55;10.30;;;;;;;;;;2069064;28;20181;-52
2021/06/13 04:06:23;;;;;;;19.08;9.90;;;;;;;;;;2070812;28;20183;-51
2021/06/13 04:07:24;;;;;;;16.48;10.93;;;;;;;;;;2067531;28;20178;-52
2021/06/13 04:08:25;;;;;;;13.00;9.13;;;;;;;;;;2070878;28;20169;-57
2021/06/13 04:09:25;;;;;;;15.20;10.00;;;;;;;;;;2072794;28;20165;-53
2021/06/13 04:10:26;;;;;;;15.68;9.07;;;;;;;;;;2067583;28;20713;-51
2021/06/13 04:11:27;;;;;;;16.92;9.77;;;;;;;;;;2063753;28;20162;-56
2021/06/13 04:12:27;;;;;;;14.23;9.93;;;;;;;;;;2077343;23;20201;-55
2021/06/13 04:13:28;;;;;;;15.60;10.00;;;;;;;;;;2066920;28;20189;-57
2021/06/13 04:14:29;;;;;;;15.20;10.55;;;;;;;;;;2074561;28;20164;-57
2021/06/13 04:15:30;;;;;;;19.02;10.00;;;;;;;;;;2073084;28;20173;-57
2021/06/13 04:16:30;;;;;;;18.00;10.40;;;;;;;;;;2073030;28;20226;-62
2021/06/13 04:17:32;;;;;;;19.63;10.27;;;;;;;;;;2071181;28;20253;-60
2021/06/13 04:18:33;;;;;;;12.88;9.52;;;;;;;;;;2080341;28;20648;-58
2021/06/13 04:19:33;;;;;;;14.02;10.02;;;;;;;;;;2080965;28;20178;-60
2021/06/13 04:20:34;;;;;;;19.35;10.90;;;;;;;;;;2077276;28;20168;-58
2021/06/13 04:21:34;;;;;;;18.17;9.52;;;;;;;;;;2074932;28;20177;-59
2021/06/13 04:22:36;;;;;;;19.55;10.65;;;;;;;;;;2076175;28;20212;-60
2021/06/13 04:23:40;;;;;;;16.90;10.27;;;;;;;;;;2076154;28;20181;-60
2021/06/13 04:24:41;;;;;;;14.65;10.13;;;;;;;;;;2076065;28;20173;-60
2021/06/13 04:25:42;;;;;;;16.27;9.95;;;;;;;;;;2076236;28;20583;-60
2021/06/13 04:26:43;;;;;;;14.73;10.68;;;;;;;;;;2075611;28;20208;-61
2021/06/13 04:27:45;;;;;;;16.00;9.85;;;;;;;;;;2068949;28;20204;-60
2021/06/13 04:28:47;;;;;;;15.30;10.77;;;;;;;;;;2067471;28;20177;-62
2021/06/13 04:29:48;;;;;;;16.48;10.15;;;;;;;;;;2074572;28;20552;-59
2021/06/13 04:31:05;;;;;;;15.55;10.60;;;;;;;;;;2073705;28;20205;-61
2021/06/13 04:32:09;;;;;;;16.75;10.02;;;;;;;;;;2072442;28;20164;-61
2021/06/13 04:33:10;;;;;;;19.40;10.32;;;;;;;;;;2079754;28;20185;-60
2021/06/13 04:34:11;;;;;;;20.50;10.68;;;;;;;;;;2075612;28;20188;-61
2021/06/13 04:35:11;;;;;;;12.85;9.60;;;;;;;;;;2074732;28;20157;-60
2021/06/13 04:36:12;;;;;;;19.27;10.55;;;;;;;;;;2078597;28;20168;-61
2021/06/13 04:37:12;;;;;;;15.50;10.52;;;;;;;;;;2079496;28;20183;-60
2021/06/13 04:38:12;;;;;;;19.85;11.00;;;;;;;;;;2079377;28;20176;-59
2021/06/13 04:39:13;;;;;;;16.05;10.50;;;;;;;;;;2079763;28;20205;-59
2021/06/13 04:40:14;;;;;;;19.23;11.63;;;;;;;;;;2080572;28;20549;-60
2021/06/13 04:41:15;;;;;;;18.77;11.15;;;;;;;;;;2080272;28;20188;-60
2021/06/13 04:42:15;;;;;;;15.80;11.20;;;;;;;;;;2076110;28;20169;-58
2021/06/13 04:43:16;;;;;;;20.75;11.32;;;;;;;;;;2076068;28;20663;-58
2021/06/13 04:44:16;;;;;;;14.05;11.57;;;;;;;;;;2076603;28;20179;-57
2021/06/13 04:45:16;;;;;;;17.52;10.55;;;;;;;;;;2072642;28;20169;-57
2021/06/13 04:46:21;;;;;;;20.00;10.40;;;;;;;;;;2073296;28;20169;-58
2021/06/13 04:47:21;;;;;;;16.55;10.25;;;;;;;;;;2069593;28;20185;-59
2021/06/13 04:48:22;;;;;;;14.68;11.15;;;;;;;;;;2072627;28;20168;-56
2021/06/13 04:49:22;;;;;;;16.98;11.07;;;;;;;;;;2072040;28;20642;-59
2021/06/13 04:50:23;;;;;;;16.23;11.13;;;;;;;;;;2072906;28;20531;-55
2021/06/13 04:51:27;;;;;;;17.83;10.45;;;;;;;;;;2073052;28;20168;-58
2021/06/13 04:52:28;;;;;;;15.25;10.77;;;;;;;;;;2073229;28;20323;-60
2021/06/13 04:53:34;;;;;;;20.08;11.38;;;;;;;;;;2073058;28;20177;-58
2021/06/13 04:54:37;;;;;;;18.23;10.95;;;;;;;;;;2072284;28;20180;-55
2021/06/13 04:55:41;;;;;;;15.68;10.32;;;;;;;;;;2071895;28;20246;-61
2021/06/13 04:56:46;;;;;;;18.60;11.45;;;;;;;;;;2071359;28;20219;-59
2021/06/13 04:57:59;;;;;;;17.85;11.35;;;;;;;;;;2064977;28;20154;-62
2021/06/13 04:59:00;;;;;;;17.52;10.93;;;;;;;;;;2071838;28;20676;-58
2021/06/13 05:00:00;;;;;;;14.27;10.27;;;;;;;;;;2066567;28;20177;-58
2021/06/13 05:01:00;;;;;;;18.00;10.88;;;;;;;;;;2074521;28;20196;-59
2021/06/13 05:02:01;;;;;;;16.73;11.18;;;;;;;;;;2078103;28;20176;-59
2021/06/13 05:03:01;;;;;;;15.15;10.88;;;;;;;;;;2075017;28;20161;-58
2021/06/13 05:04:02;;;;;;;22.20;11.32;;;;;;;;;;2076369;28;20183;-60
2021/06/13 05:05:02;;;;;;;16.50;10.55;;;;;;;;;;2078779;28;20168;-58
2021/06/13 05:06:03;;;;;;;16.63;10.60;;;;;;;;;;2070604;28;20255;-59
2021/06/13 05:07:05;;;;;;;19.88;10.57;;;;;;;;;;2079400;28;20271;-58
2021/06/13 05:08:05;;;;;;;15.63;9.73;;;;;;;;;;2071010;28;20645;-59
2021/06/13 05:09:05;;;;;;;15.75;10.32;;;;;;;;;;2075727;28;20175;-58
2021/06/13 05:10:06;;;;;;;15.05;9.65;;;;;;;;;;2073097;28;20625;-60
2021/06/13 05:11:07;;;;;;;16.77;10.77;;;;;;;;;;2073563;28;20238;-57
2021/06/13 05:12:07;;;;;;;16.63;9.50;;;;;;;;;;2073316;28;20191;-60
2021/06/13 05:13:17;;;;;;;20.80;9.98;;;;;;;;;;2075756;28;20187;-59
2021/06/13 05:14:17;;;;;;;14.13;9.75;;;;;;;;;;2076539;28;20228;-60
2021/06/13 05:15:18;;;;;;;15.77;9.80;;;;;;;;;;2073491;28;20209;-61
2021/06/13 05:16:18;;;;;;;19.08;10.30;;;;;;;;;;2077897;28;20180;-58
2021/06/13 05:17:19;;;;;;;15.45;9.55;;;;;;;;;;2077783;28;20274;-59
2021/06/13 05:18:19;;;;;;;14.13;9.10;;;;;;;;;;2070781;28;20228;-60
2021/06/13 05:19:19;;;;;;;19.25;9.60;;;;;;;;;;2073435;28;20180;-58
2021/06/13 05:20:20;;;;;;;17.20;9.85;;;;;;;;;;2076009;28;20234;-61
2021/06/13 05:21:20;;;;;;;20.85;10.48;;;;;;;;;;2078591;28;20275;-60
2021/06/13 05:22:20;;;;;;;15.13;10.40;;;;;;;;;;2077839;28;20189;-60
2021/06/13 05:23:21;;;;;;;18.63;10.07;;;;;;;;;;2072695;28;20220;-59
2021/06/13 05:24:21;;;;;;;16.02;9.43;;;;;;;;;;2074586;28;20169;-61
2021/06/13 05:25:22;;;;;;;17.17;9.98;;;;;;;;;;2075559;28;20649;-63
2021/06/13 05:26:22;;;;;;;15.80;9.40;;;;;;;;;;2075283;28;20584;-61
2021/06/13 05:27:23;;;;;;;14.32;9.20;;;;;;;;;;2071185;28;20678;-61
2021/06/13 05:28:23;;;;;;;15.85;9.32;;;;;;;;;;2076698;28;20180;-58
2021/06/13 05:29:24;;;;;;;14.70;10.23;;;;;;;;;;2074858;28;20185;-59
2021/06/13 05:30:28;;;;;;;16.13;9.68;;;;;;;;;;2074457;28;20177;-59
2021/06/13 05:31:28;;;;;;;15.23;9.95;;;;;;;;;;2065035;28;20251;-61
2021/06/13 05:32:28;;;;;;;14.90;10.27;;;;;;;;;;2070621;28;20199;-61
2021/06/13 05:33:28;;;;;;;12.48;9.15;;;;;;;;;;2078471;28;20535;-60
2021/06/13 05:34:29;;;;;;;17.38;9.88;;;;;;;;;;2078622;28;20172;-61
2021/06/13 05:35:30;;;;;;;12.50;8.70;;;;;;;;;;2072805;28;20272;-60
2021/06/13 05:36:31;;;;;;;14.73;8.60;;;;;;;;;;2075416;28;20270;-61
2021/06/13 05:37:31;;;;;;;13.00;8.35;;;;;;;;;;2082387;28;20613;-61
2021/06/13 05:38:31;;;;;;;15.82;8.80;;;;;;;;;;2075084;28;20326;-61
2021/06/13 05:39:31;;;;;;;13.02;7.40;;;;;;;;;;2079910;28;20184;-60
2021/06/13 05:40:32;;;;;;;17.50;8.30;;;;;;;;;;2074095;28;20168;-60
2021/06/13 05:41:33;;;;;;;13.13;8.00;;;;;;;;;;2073097;28;20290;-60
2021/06/13 05:42:33;;;;;;;13.95;7.68;;;;;;;;;;2076689;28;20235;-62
2021/06/13 05:43:33;;;;;;;13.57;7.93;;;;;;;;;;2069027;28;20181;-61
2021/06/13 05:44:34;;;;;;;12.00;7.30;;;;;;;;;;2079807;28;20200;-59
2021/06/13 05:45:34;;;;;;;14.77;7.97;;;;;;;;;;2075640;28;20203;-60
2021/06/13 05:46:35;;;;;;;13.43;8.00;;;;;;;;;;2074839;28;20227;-59
2021/06/13 05:47:36;;;;;;;12.00;7.38;;;;;;;;;;2081726;28;20183;-60
2021/06/13 05:48:36;;;;;;;12.15;7.50;;;;;;;;;;2076086;28;20534;-61
2021/06/13 05:49:36;;;;;;;13.48;8.70;;;;;;;;;;2074281;28;20165;-59
2021/06/13 05:50:37;;;;;;;11.77;8.07;;;;;;;;;;2074093;28;20173;-59
2021/06/13 05:51:37;;;;;;;15.35;9.13;;;;;;;;;;2073101;28;20716;-61
2021/06/13 05:52:38;;;;;;;12.13;7.75;;;;;;;;;;2073509;28;20255;-60
2021/06/13 05:53:38;;;;;;;14.95;8.05;;;;;;;;;;2074028;28;20192;-58
2021/06/13 05:54:39;;;;;;;11.90;7.50;;;;;;;;;;2081904;28;20176;-58
2021/06/13 05:55:40;;;;;;;14.77;8.00;;;;;;;;;;2074477;28;20585;-60
2021/06/13 05:56:40;;;;;;;13.50;7.90;;;;;;;;;;2080901;28;20644;-59
2021/06/13 05:57:41;;;;;;;17.05;8.38;;;;;;;;;;2081542;28;20181;-59
2021/06/13 05:58:41;;;;;;;12.65;7.18;;;;;;;;;;2073916;28;20165;-59
2021/06/13 05:59:41;;;;;;;12.30;7.00;;;;;;;;;;2081976;28;20659;-59
2021/06/13 06:00:42;;;;;;;9.25;6.97;;;;;;;;;;2074979;28;20180;-58
2021/06/13 06:01:43;;;;;;;10.95;6.78;;;;;;;;;;2079567;28;20547;-58
2021/06/13 06:02:44;;;;;;;13.45;7.72;;;;;;;;;;2082021;28;20285;-60
2021/06/13 06:03:45;;;;;;;13.43;6.82;;;;;;;;;;2065481;28;20530;-59
2021/06/13 06:04:45;;;;;;;14.02;7.32;;;;;;;;;;2078067;28;20179;-59
2021/06/13 06:05:45;;;;;;;11.43;6.53;;;;;;;;;;2076176;28;20271;-59